sensor_id;sensor_type;location;lat;lon;timestamp;P1;durP1;ratioP1;P2;durP2;ratioP2
26820;SDS011;37186;51.394;5.454;2023-04-19T00:00:52;5.50;;;5.40;;
26820;SDS011;37186;51.394;5.454;2023-04-19T00:03:53;5.40;;;5.30;;
26820;SDS011;37186;51.394;5.454;2023-04-19T00:06:54;5.50;;;5.40;;
26820;SDS011;37186;51.394;5.454;2023-04-19T00:09:55;5.30;;;5.20;;
26820;SDS011;37186;51.394;5.454;2023-04-19T00:12:56;5.43;;;5.33;;
26820;SDS011;37186;51.394;5.454;2023-04-19T00:15:56;5.20;;;5.10;;
26820;SDS011;37186;51.394;5.454;2023-04-19T00:18:57;5.07;;;4.97;;
26820;SDS011;37186;51.394;5.454;2023-04-19T00:21:57;5.33;;;5.23;;
26820;SDS011;37186;51.394;5.454;2023-04-19T00:24:58;5.33;;;5.23;;
26820;SDS011;37186;51.394;5.454;2023-04-19T00:27:58;4.90;;;4.80;;
26820;SDS011;37186;51.394;5.454;2023-04-19T00:30:59;5.00;;;4.90;;
26820;SDS011;37186;51.394;5.454;2023-04-19T00:33:59;4.93;;;4.83;;
26820;SDS011;37186;51.394;5.454;2023-04-19T00:37:00;5.43;;;5.33;;
26820;SDS011;37186;51.394;5.454;2023-04-19T00:40:01;5.37;;;5.27;;
26820;SDS011;37186;51.394;5.454;2023-04-19T00:43:01;5.60;;;5.50;;
26820;SDS011;37186;51.394;5.454;2023-04-19T00:46:02;5.90;;;5.73;;
26820;SDS011;37186;51.394;5.454;2023-04-19T00:49:02;5.67;;;5.57;;
26820;SDS011;37186;51.394;5.454;2023-04-19T00:52:03;5.57;;;5.47;;
26820;SDS011;37186;51.394;5.454;2023-04-19T00:55:05;5.77;;;5.60;;
26820;SDS011;37186;51.394;5.454;2023-04-19T00:58:06;5.80;;;5.63;;
26820;SDS011;37186;51.394;5.454;2023-04-19T01:01:08;5.70;;;5.53;;
26820;SDS011;37186;51.394;5.454;2023-04-19T01:04:08;5.60;;;5.50;;
26820;SDS011;37186;51.394;5.454;2023-04-19T01:07:09;6.00;;;5.80;;
26820;SDS011;37186;51.394;5.454;2023-04-19T01:10:10;6.17;;;5.97;;
26820;SDS011;37186;51.394;5.454;2023-04-19T01:13:10;6.20;;;6.00;;
26820;SDS011;37186;51.394;5.454;2023-04-19T01:16:11;6.20;;;6.00;;
26820;SDS011;37186;51.394;5.454;2023-04-19T01:19:11;6.00;;;5.80;;
26820;SDS011;37186;51.394;5.454;2023-04-19T01:22:17;5.97;;;5.77;;
26820;SDS011;37186;51.394;5.454;2023-04-19T01:25:20;5.60;;;5.50;;
26820;SDS011;37186;51.394;5.454;2023-04-19T01:28:21;5.80;;;5.67;;
26820;SDS011;37186;51.394;5.454;2023-04-19T01:31:21;5.43;;;5.33;;
26820;SDS011;37186;51.394;5.454;2023-04-19T01:34:22;5.35;;;5.25;;
26820;SDS011;37186;51.394;5.454;2023-04-19T01:37:22;5.77;;;5.60;;
26820;SDS011;37186;51.394;5.454;2023-04-19T01:40:23;5.47;;;5.37;;
26820;SDS011;37186;51.394;5.454;2023-04-19T01:43:24;5.80;;;5.63;;
26820;SDS011;37186;51.394;5.454;2023-04-19T01:46:25;6.00;;;5.80;;
26820;SDS011;37186;51.394;5.454;2023-04-19T01:49:25;5.17;;;5.07;;
26820;SDS011;37186;51.394;5.454;2023-04-19T01:52:26;5.40;;;5.30;;
26820;SDS011;37186;51.394;5.454;2023-04-19T01:55:27;5.20;;;5.10;;
26820;SDS011;37186;51.394;5.454;2023-04-19T01:58:28;5.00;;;4.90;;
26820;SDS011;37186;51.394;5.454;2023-04-19T02:01:28;5.40;;;5.30;;
26820;SDS011;37186;51.394;5.454;2023-04-19T02:04:29;5.30;;;5.20;;
26820;SDS011;37186;51.394;5.454;2023-04-19T02:07:32;5.30;;;5.20;;
26820;SDS011;37186;51.394;5.454;2023-04-19T02:10:33;4.90;;;4.80;;
26820;SDS011;37186;51.394;5.454;2023-04-19T02:13:34;4.87;;;4.77;;
26820;SDS011;37186;51.394;5.454;2023-04-19T02:16:35;5.20;;;5.10;;
26820;SDS011;37186;51.394;5.454;2023-04-19T02:19:35;5.40;;;5.30;;
26820;SDS011;37186;51.394;5.454;2023-04-19T02:22:36;5.20;;;5.10;;
26820;SDS011;37186;51.394;5.454;2023-04-19T02:25:36;5.27;;;5.17;;
26820;SDS011;37186;51.394;5.454;2023-04-19T02:28:37;5.10;;;5.00;;
26820;SDS011;37186;51.394;5.454;2023-04-19T02:31:38;5.37;;;5.27;;
26820;SDS011;37186;51.394;5.454;2023-04-19T02:34:38;5.30;;;5.20;;
26820;SDS011;37186;51.394;5.454;2023-04-19T02:37:39;5.10;;;5.00;;
26820;SDS011;37186;51.394;5.454;2023-04-19T02:40:41;4.83;;;4.73;;
26820;SDS011;37186;51.394;5.454;2023-04-19T02:43:41;4.80;;;4.70;;
26820;SDS011;37186;51.394;5.454;2023-04-19T02:46:48;5.10;;;5.00;;
26820;SDS011;37186;51.394;5.454;2023-04-19T02:49:52;5.03;;;4.93;;
26820;SDS011;37186;51.394;5.454;2023-04-19T02:52:52;4.70;;;4.60;;
26820;SDS011;37186;51.394;5.454;2023-04-19T02:55:53;4.70;;;4.60;;
26820;SDS011;37186;51.394;5.454;2023-04-19T02:58:53;4.80;;;4.70;;
26820;SDS011;37186;51.394;5.454;2023-04-19T03:01:54;4.63;;;4.53;;
26820;SDS011;37186;51.394;5.454;2023-04-19T03:04:54;4.47;;;4.37;;
26820;SDS011;37186;51.394;5.454;2023-04-19T03:07:55;4.60;;;4.50;;
26820;SDS011;37186;51.394;5.454;2023-04-19T03:10:55;4.40;;;4.30;;
26820;SDS011;37186;51.394;5.454;2023-04-19T03:13:56;4.53;;;4.43;;
26820;SDS011;37186;51.394;5.454;2023-04-19T03:16:56;4.60;;;4.50;;
26820;SDS011;37186;51.394;5.454;2023-04-19T03:19:57;4.60;;;4.50;;
26820;SDS011;37186;51.394;5.454;2023-04-19T03:22:57;4.50;;;4.40;;
26820;SDS011;37186;51.394;5.454;2023-04-19T03:25:58;4.60;;;4.50;;
26820;SDS011;37186;51.394;5.454;2023-04-19T03:28:58;4.80;;;4.70;;
26820;SDS011;37186;51.394;5.454;2023-04-19T03:32:00;4.70;;;4.60;;
26820;SDS011;37186;51.394;5.454;2023-04-19T03:35:00;4.70;;;4.60;;
26820;SDS011;37186;51.394;5.454;2023-04-19T03:38:01;4.60;;;4.50;;
26820;SDS011;37186;51.394;5.454;2023-04-19T03:41:02;4.60;;;4.50;;
26820;SDS011;37186;51.394;5.454;2023-04-19T03:44:02;4.47;;;4.37;;
26820;SDS011;37186;51.394;5.454;2023-04-19T03:47:03;4.47;;;4.37;;
26820;SDS011;37186;51.394;5.454;2023-04-19T03:50:03;4.20;;;4.10;;
26820;SDS011;37186;51.394;5.454;2023-04-19T03:53:04;3.90;;;3.80;;
26820;SDS011;37186;51.394;5.454;2023-04-19T03:56:05;3.97;;;3.87;;
26820;SDS011;37186;51.394;5.454;2023-04-19T03:59:05;3.77;;;3.67;;
26820;SDS011;37186;51.394;5.454;2023-04-19T04:02:06;3.80;;;3.70;;
26820;SDS011;37186;51.394;5.454;2023-04-19T04:05:06;3.90;;;3.80;;
26820;SDS011;37186;51.394;5.454;2023-04-19T04:08:07;4.00;;;3.90;;
26820;SDS011;37186;51.394;5.454;2023-04-19T04:11:07;3.77;;;3.67;;
26820;SDS011;37186;51.394;5.454;2023-04-19T04:14:08;3.90;;;3.80;;
26820;SDS011;37186;51.394;5.454;2023-04-19T04:17:09;3.90;;;3.80;;
26820;SDS011;37186;51.394;5.454;2023-04-19T04:20:09;4.20;;;4.10;;
26820;SDS011;37186;51.394;5.454;2023-04-19T04:23:12;4.00;;;3.90;;
26820;SDS011;37186;51.394;5.454;2023-04-19T04:26:13;3.90;;;3.80;;
26820;SDS011;37186;51.394;5.454;2023-04-19T04:29:14;4.07;;;3.97;;
26820;SDS011;37186;51.394;5.454;2023-04-19T04:32:15;4.03;;;3.93;;
26820;SDS011;37186;51.394;5.454;2023-04-19T04:35:17;4.10;;;4.00;;
26820;SDS011;37186;51.394;5.454;2023-04-19T04:38:18;4.07;;;3.97;;
26820;SDS011;37186;51.394;5.454;2023-04-19T04:41:18;3.87;;;3.77;;
26820;SDS011;37186;51.394;5.454;2023-04-19T04:44:19;4.13;;;4.03;;
26820;SDS011;37186;51.394;5.454;2023-04-19T04:47:21;4.10;;;4.00;;
26820;SDS011;37186;51.394;5.454;2023-04-19T04:50:21;4.10;;;4.00;;
26820;SDS011;37186;51.394;5.454;2023-04-19T04:53:25;4.13;;;4.03;;
26820;SDS011;37186;51.394;5.454;2023-04-19T04:56:26;4.20;;;4.10;;
26820;SDS011;37186;51.394;5.454;2023-04-19T04:59:26;3.83;;;3.73;;
26820;SDS011;37186;51.394;5.454;2023-04-19T05:02:27;3.97;;;3.87;;
26820;SDS011;37186;51.394;5.454;2023-04-19T05:05:28;4.10;;;4.00;;
26820;SDS011;37186;51.394;5.454;2023-04-19T05:08:29;4.00;;;3.90;;
26820;SDS011;37186;51.394;5.454;2023-04-19T05:11:29;4.00;;;3.90;;
26820;SDS011;37186;51.394;5.454;2023-04-19T05:14:30;4.00;;;3.90;;
26820;SDS011;37186;51.394;5.454;2023-04-19T05:17:30;4.00;;;3.90;;
26820;SDS011;37186;51.394;5.454;2023-04-19T05:20:31;4.00;;;3.90;;
26820;SDS011;37186;51.394;5.454;2023-04-19T05:23:32;3.87;;;3.77;;
26820;SDS011;37186;51.394;5.454;2023-04-19T05:26:33;4.00;;;3.90;;
26820;SDS011;37186;51.394;5.454;2023-04-19T05:29:33;4.00;;;3.90;;
26820;SDS011;37186;51.394;5.454;2023-04-19T05:32:34;4.00;;;3.90;;
26820;SDS011;37186;51.394;5.454;2023-04-19T05:35:35;4.10;;;4.00;;
26820;SDS011;37186;51.394;5.454;2023-04-19T05:38:35;3.93;;;3.83;;
26820;SDS011;37186;51.394;5.454;2023-04-19T05:41:36;4.10;;;4.00;;
26820;SDS011;37186;51.394;5.454;2023-04-19T05:44:36;4.03;;;3.93;;
26820;SDS011;37186;51.394;5.454;2023-04-19T05:47:37;3.80;;;3.70;;
26820;SDS011;37186;51.394;5.454;2023-04-19T05:50:38;3.90;;;3.80;;
26820;SDS011;37186;51.394;5.454;2023-04-19T05:53:39;3.70;;;3.60;;
26820;SDS011;37186;51.394;5.454;2023-04-19T05:56:40;3.80;;;3.70;;
26820;SDS011;37186;51.394;5.454;2023-04-19T05:59:40;3.73;;;3.63;;
26820;SDS011;37186;51.394;5.454;2023-04-19T06:02:41;3.77;;;3.67;;
26820;SDS011;37186;51.394;5.454;2023-04-19T06:05:43;3.57;;;3.47;;
26820;SDS011;37186;51.394;5.454;2023-04-19T06:08:43;3.50;;;3.40;;
26820;SDS011;37186;51.394;5.454;2023-04-19T06:11:44;3.63;;;3.53;;
26820;SDS011;37186;51.394;5.454;2023-04-19T06:14:45;3.47;;;3.37;;
26820;SDS011;37186;51.394;5.454;2023-04-19T06:17:45;3.43;;;3.33;;
26820;SDS011;37186;51.394;5.454;2023-04-19T06:20:46;3.30;;;3.20;;
26820;SDS011;37186;51.394;5.454;2023-04-19T06:23:46;3.30;;;3.20;;
26820;SDS011;37186;51.394;5.454;2023-04-19T06:26:47;3.43;;;3.33;;
26820;SDS011;37186;51.394;5.454;2023-04-19T06:29:48;3.50;;;3.40;;
26820;SDS011;37186;51.394;5.454;2023-04-19T06:32:49;3.67;;;3.57;;
26820;SDS011;37186;51.394;5.454;2023-04-19T06:35:49;3.60;;;3.50;;
26820;SDS011;37186;51.394;5.454;2023-04-19T06:38:50;3.50;;;3.40;;
26820;SDS011;37186;51.394;5.454;2023-04-19T06:41:50;3.40;;;3.30;;
26820;SDS011;37186;51.394;5.454;2023-04-19T06:44:51;3.60;;;3.50;;
26820;SDS011;37186;51.394;5.454;2023-04-19T06:47:52;3.43;;;3.33;;
26820;SDS011;37186;51.394;5.454;2023-04-19T06:50:53;3.60;;;3.50;;
26820;SDS011;37186;51.394;5.454;2023-04-19T06:53:53;3.67;;;3.57;;
26820;SDS011;37186;51.394;5.454;2023-04-19T06:56:55;3.37;;;3.27;;
26820;SDS011;37186;51.394;5.454;2023-04-19T06:59:55;3.47;;;3.37;;
26820;SDS011;37186;51.394;5.454;2023-04-19T07:02:57;3.47;;;3.37;;
26820;SDS011;37186;51.394;5.454;2023-04-19T07:05:59;3.50;;;3.40;;
26820;SDS011;37186;51.394;5.454;2023-04-19T07:08:59;3.37;;;3.27;;
26820;SDS011;37186;51.394;5.454;2023-04-19T07:12:00;3.70;;;3.60;;
26820;SDS011;37186;51.394;5.454;2023-04-19T07:15:01;3.63;;;3.53;;
26820;SDS011;37186;51.394;5.454;2023-04-19T07:18:01;3.80;;;3.70;;
26820;SDS011;37186;51.394;5.454;2023-04-19T07:21:02;3.70;;;3.60;;
26820;SDS011;37186;51.394;5.454;2023-04-19T07:24:02;3.57;;;3.47;;
26820;SDS011;37186;51.394;5.454;2023-04-19T07:27:03;3.70;;;3.60;;
26820;SDS011;37186;51.394;5.454;2023-04-19T07:30:05;3.60;;;3.50;;
26820;SDS011;37186;51.394;5.454;2023-04-19T07:33:06;3.90;;;3.80;;
26820;SDS011;37186;51.394;5.454;2023-04-19T07:36:07;3.80;;;3.70;;
26820;SDS011;37186;51.394;5.454;2023-04-19T07:39:08;3.93;;;3.83;;
26820;SDS011;37186;51.394;5.454;2023-04-19T07:42:08;3.97;;;3.87;;
26820;SDS011;37186;51.394;5.454;2023-04-19T07:45:09;3.97;;;3.87;;
26820;SDS011;37186;51.394;5.454;2023-04-19T07:48:10;4.50;;;4.40;;
26820;SDS011;37186;51.394;5.454;2023-04-19T07:51:11;4.33;;;4.23;;
26820;SDS011;37186;51.394;5.454;2023-04-19T07:54:12;4.30;;;4.20;;
26820;SDS011;37186;51.394;5.454;2023-04-19T07:57:15;4.23;;;4.13;;
26820;SDS011;37186;51.394;5.454;2023-04-19T08:00:16;4.53;;;4.43;;
26820;SDS011;37186;51.394;5.454;2023-04-19T08:03:17;4.80;;;4.70;;
26820;SDS011;37186;51.394;5.454;2023-04-19T08:06:18;4.60;;;4.50;;
26820;SDS011;37186;51.394;5.454;2023-04-19T08:09:20;4.60;;;4.50;;
26820;SDS011;37186;51.394;5.454;2023-04-19T08:12:21;4.60;;;4.50;;
26820;SDS011;37186;51.394;5.454;2023-04-19T08:15:21;4.60;;;4.50;;
26820;SDS011;37186;51.394;5.454;2023-04-19T08:18:22;4.57;;;4.47;;
26820;SDS011;37186;51.394;5.454;2023-04-19T08:21:23;4.80;;;4.70;;
26820;SDS011;37186;51.394;5.454;2023-04-19T08:24:24;5.07;;;4.97;;
26820;SDS011;37186;51.394;5.454;2023-04-19T08:27:24;4.70;;;4.60;;
26820;SDS011;37186;51.394;5.454;2023-04-19T08:30:26;4.70;;;4.60;;
26820;SDS011;37186;51.394;5.454;2023-04-19T08:33:27;4.83;;;4.73;;
26820;SDS011;37186;51.394;5.454;2023-04-19T08:36:27;4.63;;;4.53;;
26820;SDS011;37186;51.394;5.454;2023-04-19T08:39:30;4.77;;;4.67;;
26820;SDS011;37186;51.394;5.454;2023-04-19T08:42:31;4.70;;;4.60;;
26820;SDS011;37186;51.394;5.454;2023-04-19T08:45:32;4.90;;;4.80;;
26820;SDS011;37186;51.394;5.454;2023-04-19T08:48:34;4.77;;;4.67;;
26820;SDS011;37186;51.394;5.454;2023-04-19T08:51:36;5.17;;;5.07;;
26820;SDS011;37186;51.394;5.454;2023-04-19T08:54:38;4.03;;;3.93;;
26820;SDS011;37186;51.394;5.454;2023-04-19T08:57:41;4.17;;;4.07;;
26820;SDS011;37186;51.394;5.454;2023-04-19T09:00:41;4.30;;;4.20;;
26820;SDS011;37186;51.394;5.454;2023-04-19T09:03:45;4.30;;;4.20;;
26820;SDS011;37186;51.394;5.454;2023-04-19T09:06:45;3.97;;;3.87;;
26820;SDS011;37186;51.394;5.454;2023-04-19T09:09:46;3.92;;;3.83;;
26820;SDS011;37186;51.394;5.454;2023-04-19T09:13:04;3.90;;;3.80;;
26820;SDS011;37186;51.394;5.454;2023-04-19T09:16:05;3.80;;;3.70;;
26820;SDS011;37186;51.394;5.454;2023-04-19T09:19:06;3.70;;;3.60;;
26820;SDS011;37186;51.394;5.454;2023-04-19T09:22:11;3.90;;;3.80;;
26820;SDS011;37186;51.394;5.454;2023-04-19T09:25:22;3.72;;;3.63;;
26820;SDS011;37186;51.394;5.454;2023-04-19T09:28:24;3.70;;;3.60;;
26820;SDS011;37186;51.394;5.454;2023-04-19T09:31:26;3.93;;;3.83;;
26820;SDS011;37186;51.394;5.454;2023-04-19T09:34:28;4.22;;;4.13;;
26820;SDS011;37186;51.394;5.454;2023-04-19T09:37:29;4.63;;;4.53;;
26820;SDS011;37186;51.394;5.454;2023-04-19T09:40:30;4.43;;;4.32;;
26820;SDS011;37186;51.394;5.454;2023-04-19T09:43:30;4.55;;;4.45;;
26820;SDS011;37186;51.394;5.454;2023-04-19T09:46:31;4.70;;;4.60;;
26820;SDS011;37186;51.394;5.454;2023-04-19T09:49:33;4.43;;;4.32;;
26820;SDS011;37186;51.394;5.454;2023-04-19T09:52:34;4.93;;;4.82;;
26820;SDS011;37186;51.394;5.454;2023-04-19T09:55:34;4.80;;;4.70;;
26820;SDS011;37186;51.394;5.454;2023-04-19T09:58:37;5.05;;;4.95;;
26820;SDS011;37186;51.394;5.454;2023-04-19T10:01:45;4.60;;;4.50;;
26820;SDS011;37186;51.394;5.454;2023-04-19T10:04:52;4.70;;;4.60;;
26820;SDS011;37186;51.394;5.454;2023-04-19T10:07:54;4.93;;;4.82;;
26820;SDS011;37186;51.394;5.454;2023-04-19T10:10:58;4.95;;;4.85;;
26820;SDS011;37186;51.394;5.454;2023-04-19T10:13:59;4.97;;;4.88;;
26820;SDS011;37186;51.394;5.454;2023-04-19T10:17:02;5.03;;;4.93;;
26820;SDS011;37186;51.394;5.454;2023-04-19T10:20:05;4.88;;;4.78;;
26820;SDS011;37186;51.394;5.454;2023-04-19T10:23:09;5.30;;;5.20;;
26820;SDS011;37186;51.394;5.454;2023-04-19T10:26:10;5.05;;;4.95;;
26820;SDS011;37186;51.394;5.454;2023-04-19T10:29:11;5.15;;;5.05;;
26820;SDS011;37186;51.394;5.454;2023-04-19T10:32:12;4.80;;;4.70;;
26820;SDS011;37186;51.394;5.454;2023-04-19T10:35:20;4.90;;;4.80;;
26820;SDS011;37186;51.394;5.454;2023-04-19T10:38:38;4.50;;;4.40;;
26820;SDS011;37186;51.394;5.454;2023-04-19T10:41:57;4.40;;;4.30;;
26820;SDS011;37186;51.394;5.454;2023-04-19T10:48:34;4.40;;;4.30;;
26820;SDS011;37186;51.394;5.454;2023-04-19T10:51:37;4.72;;;4.63;;
26820;SDS011;37186;51.394;5.454;2023-04-19T10:54:41;4.25;;;4.15;;
26820;SDS011;37186;51.394;5.454;2023-04-19T10:58:00;4.68;;;4.57;;
26820;SDS011;37186;51.394;5.454;2023-04-19T11:04:56;3.80;;;3.70;;
26820;SDS011;37186;51.394;5.454;2023-04-19T11:07:58;4.10;;;4.00;;
26820;SDS011;37186;51.394;5.454;2023-04-19T11:10:58;4.00;;;3.90;;
26820;SDS011;37186;51.394;5.454;2023-04-19T11:13:59;5.45;;;5.35;;
26820;SDS011;37186;51.394;5.454;2023-04-19T11:17:03;5.72;;;5.57;;
26820;SDS011;37186;51.394;5.454;2023-04-19T11:20:13;4.85;;;4.75;;
26820;SDS011;37186;51.394;5.454;2023-04-19T11:23:17;5.95;;;5.75;;
26820;SDS011;37186;51.394;5.454;2023-04-19T11:26:17;6.00;;;5.80;;
26820;SDS011;37186;51.394;5.454;2023-04-19T11:29:18;6.03;;;5.82;;
26820;SDS011;37186;51.394;5.454;2023-04-19T11:32:20;6.38;;;6.18;;
26820;SDS011;37186;51.394;5.454;2023-04-19T11:35:25;6.68;;;6.47;;
26820;SDS011;37186;51.394;5.454;2023-04-19T11:38:27;6.45;;;6.25;;
26820;SDS011;37186;51.394;5.454;2023-04-19T11:41:28;6.15;;;5.95;;
26820;SDS011;37186;51.394;5.454;2023-04-19T11:44:28;5.63;;;5.53;;
26820;SDS011;37186;51.394;5.454;2023-04-19T11:47:31;6.07;;;5.88;;
26820;SDS011;37186;51.394;5.454;2023-04-19T11:53:38;5.15;;;5.05;;
26820;SDS011;37186;51.394;5.454;2023-04-19T11:56:55;5.28;;;5.18;;
26820;SDS011;37186;51.394;5.454;2023-04-19T12:00:05;5.40;;;5.30;;
26820;SDS011;37186;51.394;5.454;2023-04-19T12:03:08;5.95;;;5.75;;
26820;SDS011;37186;51.394;5.454;2023-04-19T12:06:10;5.45;;;5.35;;
26820;SDS011;37186;51.394;5.454;2023-04-19T12:09:12;5.20;;;5.10;;
26820;SDS011;37186;51.394;5.454;2023-04-19T12:12:12;5.20;;;5.10;;
26820;SDS011;37186;51.394;5.454;2023-04-19T12:15:13;5.00;;;4.90;;
26820;SDS011;37186;51.394;5.454;2023-04-19T12:18:13;7.38;;;7.18;;
26820;SDS011;37186;51.394;5.454;2023-04-19T12:21:27;5.50;;;5.40;;
26820;SDS011;37186;51.394;5.454;2023-04-19T12:24:31;5.28;;;5.18;;
26820;SDS011;37186;51.394;5.454;2023-04-19T12:27:32;5.50;;;5.40;;
26820;SDS011;37186;51.394;5.454;2023-04-19T12:30:33;5.25;;;5.15;;
26820;SDS011;37186;51.394;5.454;2023-04-19T12:33:35;5.88;;;5.70;;
26820;SDS011;37186;51.394;5.454;2023-04-19T12:36:35;4.95;;;4.85;;
26820;SDS011;37186;51.394;5.454;2023-04-19T12:39:36;5.22;;;5.13;;
26820;SDS011;37186;51.394;5.454;2023-04-19T12:42:36;4.55;;;4.45;;
26820;SDS011;37186;51.394;5.454;2023-04-19T12:45:37;4.93;;;4.82;;
26820;SDS011;37186;51.394;5.454;2023-04-19T12:48:37;6.00;;;5.80;;
26820;SDS011;37186;51.394;5.454;2023-04-19T12:51:38;6.35;;;6.15;;
26820;SDS011;37186;51.394;5.454;2023-04-19T12:54:39;6.18;;;5.97;;
26820;SDS011;37186;51.394;5.454;2023-04-19T12:57:40;6.30;;;6.10;;
26820;SDS011;37186;51.394;5.454;2023-04-19T13:00:41;7.40;;;7.20;;
26820;SDS011;37186;51.394;5.454;2023-04-19T13:03:42;7.95;;;7.75;;
26820;SDS011;37186;51.394;5.454;2023-04-19T13:06:42;6.95;;;6.75;;
26820;SDS011;37186;51.394;5.454;2023-04-19T13:09:43;6.70;;;6.50;;
26820;SDS011;37186;51.394;5.454;2023-04-19T13:12:43;5.45;;;5.35;;
26820;SDS011;37186;51.394;5.454;2023-04-19T13:15:44;4.50;;;4.40;;
26820;SDS011;37186;51.394;5.454;2023-04-19T13:18:44;4.75;;;4.65;;
26820;SDS011;37186;51.394;5.454;2023-04-19T13:21:45;5.97;;;5.78;;
26820;SDS011;37186;51.394;5.454;2023-04-19T13:24:46;4.38;;;4.28;;
26820;SDS011;37186;51.394;5.454;2023-04-19T13:27:46;4.90;;;4.80;;
26820;SDS011;37186;51.394;5.454;2023-04-19T13:30:47;5.85;;;5.70;;
26820;SDS011;37186;51.394;5.454;2023-04-19T13:33:47;5.13;;;5.03;;
26820;SDS011;37186;51.394;5.454;2023-04-19T13:36:48;4.53;;;4.43;;
26820;SDS011;37186;51.394;5.454;2023-04-19T13:39:48;4.40;;;4.30;;
26820;SDS011;37186;51.394;5.454;2023-04-19T13:42:49;5.35;;;5.25;;
26820;SDS011;37186;51.394;5.454;2023-04-19T13:45:50;6.30;;;6.10;;
26820;SDS011;37186;51.394;5.454;2023-04-19T13:48:50;5.07;;;4.97;;
26820;SDS011;37186;51.394;5.454;2023-04-19T13:51:51;5.75;;;5.60;;
26820;SDS011;37186;51.394;5.454;2023-04-19T13:54:51;6.88;;;6.68;;
26820;SDS011;37186;51.394;5.454;2023-04-19T13:57:52;8.32;;;8.13;;
26820;SDS011;37186;51.394;5.454;2023-04-19T14:00:52;8.82;;;8.57;;
26820;SDS011;37186;51.394;5.454;2023-04-19T14:03:53;9.88;;;9.57;;
26820;SDS011;37186;51.394;5.454;2023-04-19T14:06:53;9.73;;;9.43;;
26820;SDS011;37186;51.394;5.454;2023-04-19T14:09:54;8.02;;;7.82;;
26820;SDS011;37186;51.394;5.454;2023-04-19T14:12:54;8.38;;;8.18;;
26820;SDS011;37186;51.394;5.454;2023-04-19T14:15:55;8.20;;;8.00;;
26820;SDS011;37186;51.394;5.454;2023-04-19T14:18:56;7.60;;;7.40;;
26820;SDS011;37186;51.394;5.454;2023-04-19T14:21:56;6.55;;;6.35;;
26820;SDS011;37186;51.394;5.454;2023-04-19T14:24:57;7.80;;;7.60;;
26820;SDS011;37186;51.394;5.454;2023-04-19T14:27:57;7.70;;;7.50;;
26820;SDS011;37186;51.394;5.454;2023-04-19T14:30:58;11.48;;;11.18;;
26820;SDS011;37186;51.394;5.454;2023-04-19T14:33:59;8.18;;;7.97;;
26820;SDS011;37186;51.394;5.454;2023-04-19T14:36:59;8.00;;;7.80;;
26820;SDS011;37186;51.394;5.454;2023-04-19T14:40:00;6.90;;;6.70;;
26820;SDS011;37186;51.394;5.454;2023-04-19T14:43:00;6.05;;;5.85;;
26820;SDS011;37186;51.394;5.454;2023-04-19T14:46:01;5.00;;;4.90;;
26820;SDS011;37186;51.394;5.454;2023-04-19T14:49:01;8.73;;;8.48;;
26820;SDS011;37186;51.394;5.454;2023-04-19T14:52:05;13.98;;;13.57;;
26820;SDS011;37186;51.394;5.454;2023-04-19T14:55:05;17.92;;;17.33;;
26820;SDS011;37186;51.394;5.454;2023-04-19T14:58:06;15.38;;;14.90;;
26820;SDS011;37186;51.394;5.454;2023-04-19T15:01:11;16.02;;;15.50;;
26820;SDS011;37186;51.394;5.454;2023-04-19T15:04:12;12.30;;;11.90;;
26820;SDS011;37186;51.394;5.454;2023-04-19T15:07:12;14.60;;;14.18;;
26820;SDS011;37186;51.394;5.454;2023-04-19T15:10:13;12.40;;;12.00;;
26820;SDS011;37186;51.394;5.454;2023-04-19T15:13:13;13.75;;;13.35;;
26820;SDS011;37186;51.394;5.454;2023-04-19T15:16:14;16.55;;;16.05;;
26820;SDS011;37186;51.394;5.454;2023-04-19T15:19:14;17.90;;;17.33;;
26820;SDS011;37186;51.394;5.454;2023-04-19T15:22:15;30.52;;;29.48;;
26820;SDS011;37186;51.394;5.454;2023-04-19T15:25:16;24.77;;;23.95;;
26820;SDS011;37186;51.394;5.454;2023-04-19T15:28:16;22.58;;;21.85;;
26820;SDS011;37186;51.394;5.454;2023-04-19T15:31:17;18.65;;;18.05;;
26820;SDS011;37186;51.394;5.454;2023-04-19T15:34:17;21.75;;;21.05;;
26820;SDS011;37186;51.394;5.454;2023-04-19T15:37:18;21.00;;;20.33;;
26820;SDS011;37186;51.394;5.454;2023-04-19T15:40:18;19.50;;;18.90;;
26820;SDS011;37186;51.394;5.454;2023-04-19T15:43:20;21.10;;;20.42;;
26820;SDS011;37186;51.394;5.454;2023-04-19T15:46:21;23.42;;;22.65;;
26820;SDS011;37186;51.394;5.454;2023-04-19T15:49:21;24.75;;;23.92;;
26820;SDS011;37186;51.394;5.454;2023-04-19T15:52:22;23.42;;;22.67;;
26820;SDS011;37186;51.394;5.454;2023-04-19T15:55:23;24.23;;;23.42;;
26820;SDS011;37186;51.394;5.454;2023-04-19T15:58:23;29.08;;;28.08;;
26820;SDS011;37186;51.394;5.454;2023-04-19T16:01:24;26.95;;;26.05;;
26820;SDS011;37186;51.394;5.454;2023-04-19T16:04:25;31.10;;;30.05;;
26820;SDS011;37186;51.394;5.454;2023-04-19T16:07:26;24.33;;;23.52;;
26820;SDS011;37186;51.394;5.454;2023-04-19T16:10:26;19.23;;;18.63;;
26820;SDS011;37186;51.394;5.454;2023-04-19T16:13:27;18.00;;;17.40;;
26820;SDS011;37186;51.394;5.454;2023-04-19T16:16:27;26.85;;;25.98;;
26820;SDS011;37186;51.394;5.454;2023-04-19T16:19:31;36.05;;;34.80;;
26820;SDS011;37186;51.394;5.454;2023-04-19T16:22:32;30.70;;;29.60;;
26820;SDS011;37186;51.394;5.454;2023-04-19T16:25:32;26.17;;;25.27;;
26820;SDS011;37186;51.394;5.454;2023-04-19T16:28:33;23.05;;;22.30;;
26820;SDS011;37186;51.394;5.454;2023-04-19T16:31:34;19.48;;;18.88;;
26820;SDS011;37186;51.394;5.454;2023-04-19T16:34:35;18.35;;;17.75;;
26820;SDS011;37186;51.394;5.454;2023-04-19T16:37:35;16.80;;;16.30;;
26820;SDS011;37186;51.394;5.454;2023-04-19T16:40:36;14.27;;;13.88;;
26820;SDS011;37186;51.394;5.454;2023-04-19T16:43:37;14.13;;;13.73;;
26820;SDS011;37186;51.394;5.454;2023-04-19T16:46:37;14.07;;;13.68;;
26820;SDS011;37186;51.394;5.454;2023-04-19T16:49:38;14.05;;;13.65;;
26820;SDS011;37186;51.394;5.454;2023-04-19T16:52:38;13.23;;;12.82;;
26820;SDS011;37186;51.394;5.454;2023-04-19T16:55:39;12.82;;;12.43;;
26820;SDS011;37186;51.394;5.454;2023-04-19T16:58:39;13.60;;;13.20;;
26820;SDS011;37186;51.394;5.454;2023-04-19T17:01:40;12.38;;;11.98;;
26820;SDS011;37186;51.394;5.454;2023-04-19T17:04:41;13.57;;;13.18;;
26820;SDS011;37186;51.394;5.454;2023-04-19T17:07:42;14.20;;;13.80;;
26820;SDS011;37186;51.394;5.454;2023-04-19T17:10:42;13.15;;;12.75;;
26820;SDS011;37186;51.394;5.454;2023-04-19T17:13:43;14.77;;;14.30;;
26820;SDS011;37186;51.394;5.454;2023-04-19T17:16:43;15.32;;;14.82;;
26820;SDS011;37186;51.394;5.454;2023-04-19T17:19:44;13.48;;;13.07;;
26820;SDS011;37186;51.394;5.454;2023-04-19T17:22:45;12.15;;;11.75;;
26820;SDS011;37186;51.394;5.454;2023-04-19T17:25:45;12.90;;;12.50;;
26820;SDS011;37186;51.394;5.454;2023-04-19T17:28:46;12.93;;;12.52;;
26820;SDS011;37186;51.394;5.454;2023-04-19T17:31:46;12.02;;;11.63;;
26820;SDS011;37186;51.394;5.454;2023-04-19T17:34:47;13.85;;;13.45;;
26820;SDS011;37186;51.394;5.454;2023-04-19T17:37:47;13.45;;;13.05;;
26820;SDS011;37186;51.394;5.454;2023-04-19T17:40:48;16.55;;;16.05;;
26820;SDS011;37186;51.394;5.454;2023-04-19T17:43:49;16.35;;;15.85;;
26820;SDS011;37186;51.394;5.454;2023-04-19T17:46:49;16.88;;;16.38;;
26820;SDS011;37186;51.394;5.454;2023-04-19T17:49:50;18.30;;;17.70;;
26820;SDS011;37186;51.394;5.454;2023-04-19T17:52:50;20.20;;;19.55;;
26820;SDS011;37186;51.394;5.454;2023-04-19T17:55:51;29.15;;;28.15;;
26820;SDS011;37186;51.394;5.454;2023-04-19T17:58:51;16.42;;;15.93;;
26820;SDS011;37186;51.394;5.454;2023-04-19T18:01:52;14.68;;;14.23;;
26820;SDS011;37186;51.394;5.454;2023-04-19T18:04:52;9.85;;;9.55;;
26820;SDS011;37186;51.394;5.454;2023-04-19T18:07:53;6.53;;;6.32;;
26820;SDS011;37186;51.394;5.454;2023-04-19T18:10:53;5.50;;;5.40;;
26820;SDS011;37186;51.394;5.454;2023-04-19T18:13:54;5.10;;;5.00;;
26820;SDS011;37186;51.394;5.454;2023-04-19T18:16:54;5.45;;;5.35;;